Time;durP1;ratioP1;P1;durP2;ratioP2;P2;SDS_P1;SDS_P2;PMS_P1;PMS_P2;Temp;Humidity;BMP_temperature;BMP_pressure;BME280_temperature;BME280_humidity;BME280_pressure;Samples;Min_cycle;Max_cycle;Signal;HPM_P1;HPM_P2
2023/04/22 00:01:18;;;;;;;7.67;5.87;;;;;;;;;;5034024;28;20219;-57
2023/04/22 00:03:44;;;;;;;7.00;5.97;;;;;;;;;;5033942;28;20208;-59
2023/04/22 00:06:10;;;;;;;8.37;5.80;;;;;;;;;;5016199;28;20208;-56
2023/04/22 00:08:37;;;;;;;6.63;6.00;;;;;;;;;;5033714;28;20233;-57
2023/04/22 00:11:03;;;;;;;8.13;6.20;;;;;;;;;;5033966;28;20241;-59
2023/04/22 00:13:29;;;;;;;6.73;6.07;;;;;;;;;;5033647;28;20221;-60
2023/04/22 00:15:55;;;;;;;6.20;5.33;;;;;;;;;;5033644;28;20216;-59
2023/04/22 00:18:21;;;;;;;6.47;5.47;;;;;;;;;;5033291;28;20208;-59
2023/04/22 00:20:48;;;;;;;7.03;6.00;;;;;;;;;;5033393;28;20528;-59
2023/04/22 00:23:13;;;;;;;7.03;5.90;;;;;;;;;;5033468;28;20598;-60
2023/04/22 00:25:41;;;;;;;7.27;5.77;;;;;;;;;;5033294;28;20196;-60
2023/04/22 00:28:07;;;;;;;7.43;5.97;;;;;;;;;;5033260;28;20240;-60
2023/04/22 00:30:33;;;;;;;6.50;5.40;;;;;;;;;;5033001;28;20192;-60
2023/04/22 00:32:59;;;;;;;7.23;6.00;;;;;;;;;;5033065;28;20212;-60
2023/04/22 00:35:25;;;;;;;6.40;5.80;;;;;;;;;;5033285;28;20192;-60
2023/04/22 00:37:51;;;;;;;7.37;6.13;;;;;;;;;;5032967;28;20208;-60
2023/04/22 00:40:17;;;;;;;8.30;6.33;;;;;;;;;;5032891;28;20685;-59
2023/04/22 00:42:44;;;;;;;6.40;5.70;;;;;;;;;;5033050;28;20303;-58
2023/04/22 00:45:11;;;;;;;6.87;5.97;;;;;;;;;;5033017;28;20208;-59
2023/04/22 00:47:37;;;;;;;6.77;5.80;;;;;;;;;;5032626;28;20216;-60
2023/04/22 00:50:03;;;;;;;6.60;6.00;;;;;;;;;;5031550;28;20642;-59
2023/04/22 00:52:29;;;;;;;7.43;6.13;;;;;;;;;;5032529;28;20204;-59
2023/04/22 00:54:56;;;;;;;6.73;6.03;;;;;;;;;;5032920;28;20207;-59
2023/04/22 00:57:22;;;;;;;7.57;5.87;;;;;;;;;;5032644;28;20253;-59
2023/04/22 00:59:50;;;;;;;7.93;5.80;;;;;;;;;;5032406;28;20440;-59
2023/04/22 01:02:17;;;;;;;6.70;6.07;;;;;;;;;;5032614;28;20212;-59
2023/04/22 01:04:43;;;;;;;6.43;5.83;;;;;;;;;;5032676;28;20201;-59
2023/04/22 01:07:09;;;;;;;9.33;6.57;;;;;;;;;;5032279;28;20224;-59
2023/04/22 01:09:36;;;;;;;7.00;6.00;;;;;;;;;;5031998;28;20205;-59
2023/04/22 01:12:02;;;;;;;6.70;6.00;;;;;;;;;;5032051;28;20204;-59
2023/04/22 01:14:29;;;;;;;8.87;6.00;;;;;;;;;;5032188;28;20684;-59
2023/04/22 01:16:56;;;;;;;6.70;6.10;;;;;;;;;;5032288;28;20255;-59
2023/04/22 01:19:22;;;;;;;7.83;6.53;;;;;;;;;;5032052;28;20639;-60
2023/04/22 01:21:50;;;;;;;6.60;5.90;;;;;;;;;;5031713;28;20205;-60
2023/04/22 01:24:17;;;;;;;9.50;6.10;;;;;;;;;;5032001;28;20213;-59
2023/04/22 01:26:43;;;;;;;7.53;6.73;;;;;;;;;;5031686;28;20291;-59
2023/04/22 01:29:09;;;;;;;8.10;6.40;;;;;;;;;;5031883;28;20201;-59
2023/04/22 01:31:35;;;;;;;9.13;5.80;;;;;;;;;;5031557;28;20258;-59
2023/04/22 01:34:01;;;;;;;7.03;6.33;;;;;;;;;;5031757;28;20659;-59
2023/04/22 01:36:27;;;;;;;8.17;6.80;;;;;;;;;;5032140;28;20231;-59
2023/04/22 01:38:53;;;;;;;7.90;6.17;;;;;;;;;;5031808;28;20611;-59
2023/04/22 01:41:21;;;;;;;7.23;6.40;;;;;;;;;;5031865;28;20196;-59
2023/04/22 01:43:47;;;;;;;6.87;6.17;;;;;;;;;;5031645;28;20483;-59
2023/04/22 01:46:13;;;;;;;7.00;6.10;;;;;;;;;;5031834;28;20605;-60
2023/04/22 01:48:39;;;;;;;7.27;6.57;;;;;;;;;;5031674;28;20589;-59
2023/04/22 01:51:05;;;;;;;7.13;6.07;;;;;;;;;;5031803;28;20641;-59
2023/04/22 01:53:31;;;;;;;6.90;6.17;;;;;;;;;;5031565;28;20232;-60
2023/04/22 01:55:57;;;;;;;7.43;6.50;;;;;;;;;;5031498;28;20207;-59
2023/04/22 01:58:28;;;;;;;8.77;6.87;;;;;;;;;;5031615;28;20239;-59
2023/04/22 02:00:54;;;;;;;7.20;6.10;;;;;;;;;;5031354;28;20212;-59
2023/04/22 02:03:20;;;;;;;7.10;6.40;;;;;;;;;;5031656;28;20682;-59
2023/04/22 02:05:46;;;;;;;8.70;6.90;;;;;;;;;;5031121;28;20233;-59
2023/04/22 02:08:12;;;;;;;7.53;6.13;;;;;;;;;;5031590;28;20232;-59
2023/04/22 02:10:38;;;;;;;7.67;6.50;;;;;;;;;;5031609;28;20611;-59
2023/04/22 02:13:04;;;;;;;7.83;7.07;;;;;;;;;;5031353;28;20280;-59
2023/04/22 02:15:32;;;;;;;7.53;6.70;;;;;;;;;;5031295;28;20205;-60
2023/04/22 02:17:58;;;;;;;9.83;7.23;;;;;;;;;;5031295;28;20667;-59
2023/04/22 02:20:24;;;;;;;7.50;6.80;;;;;;;;;;5031252;28;20715;-60
2023/04/22 02:22:50;;;;;;;8.50;6.67;;;;;;;;;;5031283;28;20364;-59
2023/04/22 02:25:16;;;;;;;7.57;6.77;;;;;;;;;;5031149;28;20631;-59
2023/04/22 02:27:42;;;;;;;7.63;6.87;;;;;;;;;;5030996;28;20224;-59
2023/04/22 02:30:09;;;;;;;7.43;6.53;;;;;;;;;;5031386;28;20200;-59
2023/04/22 02:32:37;;;;;;;8.77;6.33;;;;;;;;;;5030967;28;20207;-59
2023/04/22 02:35:04;;;;;;;10.60;7.47;;;;;;;;;;5031120;28;20732;-60
2023/04/22 02:37:30;;;;;;;7.80;7.00;;;;;;;;;;5030890;28;20196;-59
2023/04/22 02:39:56;;;;;;;7.80;7.10;;;;;;;;;;5031234;28;20280;-59
2023/04/22 02:42:22;;;;;;;7.53;6.57;;;;;;;;;;5031014;28;20201;-59
2023/04/22 02:44:48;;;;;;;10.37;6.60;;;;;;;;;;5031026;28;20201;-59
2023/04/22 02:47:14;;;;;;;7.97;6.97;;;;;;;;;;5030960;28;20296;-59
2023/04/22 02:49:41;;;;;;;10.10;7.20;;;;;;;;;;5031074;28;20193;-59
2023/04/22 02:52:07;;;;;;;9.00;7.43;;;;;;;;;;5030995;28;20622;-60
2023/04/22 02:54:33;;;;;;;8.37;6.80;;;;;;;;;;5031006;28;20196;-59
2023/04/22 02:57:00;;;;;;;9.23;7.23;;;;;;;;;;5030924;28;20227;-60
2023/04/22 02:59:26;;;;;;;9.20;6.47;;;;;;;;;;5031034;28;20237;-61
2023/04/22 03:01:52;;;;;;;7.73;7.00;;;;;;;;;;5030917;28;20228;-59
2023/04/22 03:04:20;;;;;;;10.33;6.87;;;;;;;;;;5030857;28;20544;-60
2023/04/22 03:06:48;;;;;;;8.67;7.13;;;;;;;;;;5030543;28;20679;-60
2023/04/22 03:09:14;;;;;;;7.43;6.73;;;;;;;;;;5030827;28;20204;-59
2023/04/22 03:11:40;;;;;;;9.13;6.70;;;;;;;;;;5030856;28;20271;-59
2023/04/22 03:14:06;;;;;;;9.97;7.50;;;;;;;;;;5033689;28;20671;-60
2023/04/22 03:16:32;;;;;;;11.13;7.30;;;;;;;;;;5034436;28;20303;-59
2023/04/22 03:18:58;;;;;;;11.30;7.43;;;;;;;;;;5034596;28;20185;-59
2023/04/22 03:21:24;;;;;;;7.93;7.13;;;;;;;;;;5034603;28;20259;-60
2023/04/22 03:23:52;;;;;;;10.00;6.90;;;;;;;;;;5034175;28;20237;-60
2023/04/22 03:26:17;;;;;;;8.67;7.50;;;;;;;;;;5034261;28;20659;-60
2023/04/22 03:28:44;;;;;;;11.50;7.40;;;;;;;;;;5034181;28;20236;-59
2023/04/22 03:31:11;;;;;;;8.27;7.30;;;;;;;;;;5034487;28;20200;-59
2023/04/22 03:33:36;;;;;;;8.47;7.37;;;;;;;;;;5034088;28;20196;-59
2023/04/22 03:36:03;;;;;;;8.20;7.40;;;;;;;;;;5034122;28;20255;-59
2023/04/22 03:38:28;;;;;;;8.10;7.30;;;;;;;;;;5034153;28;20193;-60
2023/04/22 03:40:57;;;;;;;8.23;7.43;;;;;;;;;;5034132;28;20220;-60
2023/04/22 03:43:23;;;;;;;7.83;7.03;;;;;;;;;;5034211;28;20193;-60
2023/04/22 03:45:50;;;;;;;8.80;7.00;;;;;;;;;;5033988;28;20305;-59
2023/04/22 03:48:16;;;;;;;8.83;7.93;;;;;;;;;;5033751;28;20729;-59
2023/04/22 03:50:43;;;;;;;8.17;7.07;;;;;;;;;;5033805;28;20201;-59
2023/04/22 03:53:09;;;;;;;7.97;7.17;;;;;;;;;;5033927;28;20295;-59
2023/04/22 03:55:35;;;;;;;8.80;7.73;;;;;;;;;;5033791;28;20204;-61
2023/04/22 03:58:02;;;;;;;9.37;7.40;;;;;;;;;;5033758;28;20251;-60
2023/04/22 04:00:28;;;;;;;9.60;7.07;;;;;;;;;;5033735;28;20193;-59
2023/04/22 04:02:54;;;;;;;10.00;7.40;;;;;;;;;;5033675;28;20197;-61
2023/04/22 04:05:20;;;;;;;8.03;7.23;;;;;;;;;;5033568;28;20677;-59
2023/04/22 04:07:46;;;;;;;10.13;7.53;;;;;;;;;;5033358;28;20293;-60
2023/04/22 04:10:12;;;;;;;8.60;7.70;;;;;;;;;;5033759;28;20228;-59
2023/04/22 04:12:38;;;;;;;11.90;7.93;;;;;;;;;;5033558;28;20575;-60
2023/04/22 04:15:07;;;;;;;10.23;8.43;;;;;;;;;;5033107;28;20197;-60
2023/04/22 04:17:32;;;;;;;9.47;7.17;;;;;;;;;;5033258;28;20701;-59
2023/04/22 04:19:58;;;;;;;9.67;7.60;;;;;;;;;;5033480;28;20201;-59
2023/04/22 04:22:26;;;;;;;9.63;7.40;;;;;;;;;;5033464;28;20271;-59
2023/04/22 04:24:54;;;;;;;9.87;7.57;;;;;;;;;;5032981;28;20730;-59
2023/04/22 04:27:22;;;;;;;10.97;8.17;;;;;;;;;;5033080;28;20695;-59
2023/04/22 04:29:48;;;;;;;9.47;7.60;;;;;;;;;;5033188;28;20205;-59
2023/04/22 04:32:17;;;;;;;8.77;7.90;;;;;;;;;;5033171;28;20197;-59
2023/04/22 04:34:43;;;;;;;10.07;7.87;;;;;;;;;;5033125;28;20691;-59
2023/04/22 04:37:09;;;;;;;9.13;7.97;;;;;;;;;;5033228;28;20228;-59
2023/04/22 04:39:35;;;;;;;8.50;7.57;;;;;;;;;;5032975;28;20205;-59
2023/04/22 04:42:01;;;;;;;9.77;7.50;;;;;;;;;;5032961;28;20205;-59
2023/04/22 04:44:30;;;;;;;10.00;7.50;;;;;;;;;;5033173;28;20201;-59
2023/04/22 04:46:56;;;;;;;8.00;7.20;;;;;;;;;;5032945;28;20288;-59
2023/04/22 04:49:23;;;;;;;8.07;7.27;;;;;;;;;;5032861;28;20200;-60
2023/04/22 04:51:49;;;;;;;8.67;6.73;;;;;;;;;;5032621;28;20211;-60
2023/04/22 04:54:16;;;;;;;8.10;6.93;;;;;;;;;;5032665;28;20679;-59
2023/04/22 04:56:42;;;;;;;8.47;7.13;;;;;;;;;;5032712;28;20221;-60
2023/04/22 04:59:08;;;;;;;8.50;7.37;;;;;;;;;;5032710;28;20225;-60
2023/04/22 05:01:34;;;;;;;7.57;6.60;;;;;;;;;;5032506;28;20227;-59
2023/04/22 05:04:00;;;;;;;10.67;7.70;;;;;;;;;;5032288;28;20207;-58
2023/04/22 05:06:27;;;;;;;8.13;7.27;;;;;;;;;;5032577;28;20200;-58
2023/04/22 05:08:53;;;;;;;10.03;7.00;;;;;;;;;;5032340;28;20225;-58
2023/04/22 05:11:19;;;;;;;8.03;6.90;;;;;;;;;;5032377;28;20200;-58
2023/04/22 05:13:45;;;;;;;7.93;7.13;;;;;;;;;;5032203;28;20667;-58
2023/04/22 05:16:11;;;;;;;10.03;7.33;;;;;;;;;;5032675;28;20193;-58
2023/04/22 05:18:39;;;;;;;8.83;6.90;;;;;;;;;;5032270;28;20193;-58
2023/04/22 05:21:05;;;;;;;8.27;7.33;;;;;;;;;;5032158;28;20275;-58
2023/04/22 05:23:32;;;;;;;12.23;7.80;;;;;;;;;;5032088;28;20200;-58
2023/04/22 05:25:58;;;;;;;7.90;7.10;;;;;;;;;;5032117;28;20197;-58
2023/04/22 05:28:24;;;;;;;8.03;7.17;;;;;;;;;;5032071;28;20263;-58
2023/04/22 05:30:51;;;;;;;8.00;6.93;;;;;;;;;;5031878;28;20717;-58
2023/04/22 05:33:17;;;;;;;9.87;7.00;;;;;;;;;;5031976;28;20457;-58
2023/04/22 05:35:43;;;;;;;10.47;6.80;;;;;;;;;;5031372;28;20200;-58
2023/04/22 05:38:09;;;;;;;8.50;7.43;;;;;;;;;;5032293;28;20189;-58
2023/04/22 05:40:38;;;;;;;8.37;6.90;;;;;;;;;;5031648;28;20212;-58
2023/04/22 05:43:04;;;;;;;10.10;7.67;;;;;;;;;;5031803;28;20326;-58
2023/04/22 05:45:30;;;;;;;9.60;6.53;;;;;;;;;;5031660;28;20201;-59
2023/04/22 05:47:56;;;;;;;8.43;7.40;;;;;;;;;;5032001;28;20236;-58
2023/04/22 05:50:22;;;;;;;7.93;6.03;;;;;;;;;;5031741;28;20217;-60
2023/04/22 05:52:48;;;;;;;8.13;7.30;;;;;;;;;;5031475;28;20668;-58
2023/04/22 05:55:14;;;;;;;9.00;6.43;;;;;;;;;;5031641;28;20197;-58
2023/04/22 05:57:41;;;;;;;8.60;6.73;;;;;;;;;;5031537;28;20208;-56
2023/04/22 06:00:08;;;;;;;7.80;7.07;;;;;;;;;;5031449;28;20666;-58
2023/04/22 06:02:34;;;;;;;8.00;6.73;;;;;;;;;;5031408;28;20197;-58
2023/04/22 06:05:00;;;;;;;7.93;7.13;;;;;;;;;;5031379;28;20197;-58
2023/04/22 06:07:26;;;;;;;10.37;6.80;;;;;;;;;;5031523;28;20590;-57
2023/04/22 06:09:52;;;;;;;9.33;7.20;;;;;;;;;;5031534;28;20197;-57
2023/04/22 06:12:18;;;;;;;9.53;6.70;;;;;;;;;;5031281;28;20678;-60
2023/04/22 06:14:46;;;;;;;7.90;6.50;;;;;;;;;;5031067;28;20204;-58
2023/04/22 06:17:11;;;;;;;10.00;6.60;;;;;;;;;;5031480;28;20236;-57
2023/04/22 06:19:37;;;;;;;9.33;6.23;;;;;;;;;;5031059;28;20236;-57
2023/04/22 06:22:03;;;;;;;6.47;5.87;;;;;;;;;;5031201;28;20192;-58
2023/04/22 06:24:30;;;;;;;6.73;5.83;;;;;;;;;;5031090;28;20283;-57
2023/04/22 06:26:57;;;;;;;7.07;6.40;;;;;;;;;;5031263;28;20591;-58
2023/04/22 06:29:23;;;;;;;8.63;6.27;;;;;;;;;;5031243;28;20280;-59
2023/04/22 06:31:50;;;;;;;6.37;5.77;;;;;;;;;;5031031;28;20436;-58
2023/04/22 06:34:16;;;;;;;8.63;5.90;;;;;;;;;;5031194;28;20205;-54
2023/04/22 06:36:43;;;;;;;8.53;5.97;;;;;;;;;;5031038;28;20204;-58
2023/04/22 06:39:10;;;;;;;8.20;6.63;;;;;;;;;;5029411;28;20647;-58
2023/04/22 06:41:36;;;;;;;8.37;6.10;;;;;;;;;;5031154;28;20201;-55
2023/04/22 06:44:02;;;;;;;7.77;5.60;;;;;;;;;;5031144;28;20193;-56
2023/04/22 06:46:27;;;;;;;9.33;5.70;;;;;;;;;;5031541;28;20204;-57
2023/04/22 06:48:55;;;;;;;9.83;6.03;;;;;;;;;;5035288;28;20283;-56
2023/04/22 06:51:21;;;;;;;6.70;5.93;;;;;;;;;;5033210;28;20208;-56
2023/04/22 06:53:47;;;;;;;7.80;6.00;;;;;;;;;;5034494;28;20200;-56
2023/04/22 06:56:14;;;;;;;9.33;5.57;;;;;;;;;;5034566;28;20230;-57
2023/04/22 06:58:40;;;;;;;7.77;5.60;;;;;;;;;;5034663;28;20260;-57
2023/04/22 07:01:06;;;;;;;8.63;5.90;;;;;;;;;;5034481;28;20613;-57
2023/04/22 07:03:32;;;;;;;7.60;5.43;;;;;;;;;;5034460;28;20196;-57
2023/04/22 07:05:59;;;;;;;6.27;5.10;;;;;;;;;;5034360;28;20205;-57
2023/04/22 07:08:25;;;;;;;6.77;5.03;;;;;;;;;;5034530;28;20315;-57
2023/04/22 07:10:51;;;;;;;7.60;5.40;;;;;;;;;;5034340;28;20255;-57
2023/04/22 07:13:17;;;;;;;7.80;5.33;;;;;;;;;;5034353;28;20266;-56
2023/04/22 07:15:45;;;;;;;6.97;5.47;;;;;;;;;;5034051;28;20200;-56
2023/04/22 07:18:11;;;;;;;9.13;5.40;;;;;;;;;;5034574;28;20204;-56
2023/04/22 07:20:37;;;;;;;6.40;5.27;;;;;;;;;;5034180;28;20216;-57
2023/04/22 07:23:04;;;;;;;5.17;4.70;;;;;;;;;;5034188;28;20276;-56
2023/04/22 07:25:30;;;;;;;5.30;4.80;;;;;;;;;;5034157;28;20205;-56
2023/04/22 07:27:56;;;;;;;6.03;5.33;;;;;;;;;;5034317;28;20225;-57
2023/04/22 07:30:22;;;;;;;7.17;4.90;;;;;;;;;;5033978;28;20576;-56
2023/04/22 07:32:48;;;;;;;7.40;4.50;;;;;;;;;;5033856;28;20201;-57
2023/04/22 07:35:15;;;;;;;7.93;4.67;;;;;;;;;;5033695;28;20223;-55
2023/04/22 07:37:41;;;;;;;6.03;4.70;;;;;;;;;;5033961;28;20193;-57
2023/04/22 07:40:10;;;;;;;7.23;4.50;;;;;;;;;;5033940;28;20197;-57
2023/04/22 07:42:39;;;;;;;4.77;4.27;;;;;;;;;;5033714;28;20220;-57
2023/04/22 07:45:06;;;;;;;7.90;4.63;;;;;;;;;;5033713;28;20205;-57
2023/04/22 07:47:32;;;;;;;5.07;4.57;;;;;;;;;;5033614;28;20217;-58
2023/04/22 07:49:58;;;;;;;8.20;4.50;;;;;;;;;;5033586;28;20279;-58
2023/04/22 07:52:24;;;;;;;6.70;4.30;;;;;;;;;;5033830;28;20267;-57
2023/04/22 07:54:50;;;;;;;4.87;4.33;;;;;;;;;;5033378;28;20657;-57
2023/04/22 07:57:21;;;;;;;5.40;4.80;;;;;;;;;;5033281;28;20236;-57
2023/04/22 07:59:50;;;;;;;7.23;5.03;;;;;;;;;;5032540;28;20471;-58
2023/04/22 08:02:16;;;;;;;9.37;4.90;;;;;;;;;;5033290;28;20668;-58
2023/04/22 08:04:42;;;;;;;5.43;4.87;;;;;;;;;;5033442;28;20204;-58
2023/04/22 08:07:08;;;;;;;6.07;4.10;;;;;;;;;;5033412;28;20597;-57
2023/04/22 08:09:34;;;;;;;6.60;3.80;;;;;;;;;;5033263;28;20304;-58
2023/04/22 08:12:01;;;;;;;6.67;3.40;;;;;;;;;;5033079;28;20206;-58
2023/04/22 08:14:28;;;;;;;7.77;3.57;;;;;;;;;;5033266;28;20199;-58
2023/04/22 08:16:55;;;;;;;4.43;3.67;;;;;;;;;;5033088;28;20259;-58
2023/04/22 08:19:20;;;;;;;4.70;3.77;;;;;;;;;;5032969;28;20280;-58
2023/04/22 08:21:47;;;;;;;4.13;3.73;;;;;;;;;;5032454;28;20864;-58
2023/04/22 08:24:13;;;;;;;4.33;3.93;;;;;;;;;;5033048;28;20229;-58
2023/04/22 08:26:39;;;;;;;5.27;3.83;;;;;;;;;;5032953;28;20648;-57
2023/04/22 08:29:06;;;;;;;5.10;3.50;;;;;;;;;;5032830;28;20704;-57
2023/04/22 08:31:33;;;;;;;7.10;3.57;;;;;;;;;;5032971;28;20226;-57
2023/04/22 08:33:59;;;;;;;4.30;3.43;;;;;;;;;;5032724;28;20261;-57
2023/04/22 08:36:26;;;;;;;4.23;3.50;;;;;;;;;;5032943;28;20204;-57
2023/04/22 08:38:53;;;;;;;4.17;3.13;;;;;;;;;;5032743;28;20203;-58
2023/04/22 08:41:21;;;;;;;3.80;3.20;;;;;;;;;;5032703;28;20218;-57
2023/04/22 08:43:48;;;;;;;4.87;3.20;;;;;;;;;;5032575;28;20313;-57
2023/04/22 08:46:14;;;;;;;3.40;2.80;;;;;;;;;;5032745;28;20230;-57
2023/04/22 08:48:41;;;;;;;3.17;2.70;;;;;;;;;;5032559;28;20278;-58
2023/04/22 08:51:08;;;;;;;4.00;3.10;;;;;;;;;;5032594;28;20658;-58
2023/04/22 08:53:34;;;;;;;3.30;3.00;;;;;;;;;;5032507;28;20283;-58
2023/04/22 08:56:00;;;;;;;4.13;3.13;;;;;;;;;;5032311;28;20343;-58
2023/04/22 08:58:27;;;;;;;6.03;3.37;;;;;;;;;;5032365;28;20244;-57
2023/04/22 09:00:54;;;;;;;4.80;3.00;;;;;;;;;;5032329;28;20196;-58
2023/04/22 09:03:20;;;;;;;3.80;2.97;;;;;;;;;;5032276;28;20725;-57
2023/04/22 09:05:50;;;;;;;3.87;3.00;;;;;;;;;;5032131;28;20208;-58
2023/04/22 09:08:17;;;;;;;3.97;3.47;;;;;;;;;;5032164;28;20302;-57
2023/04/22 09:10:43;;;;;;;4.60;3.00;;;;;;;;;;5031163;28;20220;-58
2023/04/22 09:13:10;;;;;;;4.93;3.40;;;;;;;;;;5032303;28;20251;-58
2023/04/22 09:15:36;;;;;;;4.43;3.40;;;;;;;;;;5031963;28;20620;-57
2023/04/22 09:18:04;;;;;;;4.50;3.30;;;;;;;;;;5031972;28;20197;-57
2023/04/22 09:20:30;;;;;;;3.30;3.00;;;;;;;;;;5031899;28;20203;-57
2023/04/22 09:23:02;;;;;;;5.07;3.33;;;;;;;;;;5031928;28;20717;-58
2023/04/22 09:25:28;;;;;;;3.37;3.07;;;;;;;;;;5032118;28;20208;-57
2023/04/22 09:27:55;;;;;;;4.57;3.17;;;;;;;;;;5031878;28;20241;-58
2023/04/22 09:30:23;;;;;;;3.77;2.90;;;;;;;;;;5031888;28;20200;-58
2023/04/22 09:32:53;;;;;;;3.37;3.07;;;;;;;;;;5031703;28;20197;-58
2023/04/22 09:35:23;;;;;;;3.77;3.10;;;;;;;;;;5031626;28;20671;-57
2023/04/22 09:37:51;;;;;;;5.40;3.00;;;;;;;;;;5031620;28;20192;-57
2023/04/22 09:40:19;;;;;;;3.57;3.00;;;;;;;;;;5031648;28;20260;-57
2023/04/22 09:42:47;;;;;;;4.63;3.20;;;;;;;;;;5031484;28;20233;-58
2023/04/22 09:45:13;;;;;;;4.60;3.13;;;;;;;;;;5031722;28;20193;-58
2023/04/22 09:47:40;;;;;;;5.00;2.90;;;;;;;;;;5031690;28;20231;-58
2023/04/22 09:50:06;;;;;;;3.30;2.90;;;;;;;;;;5031602;28;20197;-58
2023/04/22 09:52:32;;;;;;;6.23;3.03;;;;;;;;;;5031407;28;20274;-57
2023/04/22 09:54:58;;;;;;;5.10;2.67;;;;;;;;;;5031450;28;20203;-57
2023/04/22 09:57:26;;;;;;;4.93;3.07;;;;;;;;;;5031453;28;20305;-57
2023/04/22 09:59:54;;;;;;;4.07;2.50;;;;;;;;;;5030981;28;20598;-58
2023/04/22 10:02:28;;;;;;;4.53;2.57;;;;;;;;;;5031226;28;20287;-57
2023/04/22 10:04:54;;;;;;;2.83;2.10;;;;;;;;;;5031227;28;20208;-58
2023/04/22 10:07:20;;;;;;;5.07;3.10;;;;;;;;;;5031053;28;20601;-57
2023/04/22 10:09:46;;;;;;;2.93;2.17;;;;;;;;;;5030931;28;20198;-58
2023/04/22 10:12:13;;;;;;;3.00;2.33;;;;;;;;;;5031151;28;20200;-57
2023/04/22 10:14:40;;;;;;;2.97;2.20;;;;;;;;;;5031203;28;20197;-58
2023/04/22 10:17:06;;;;;;;3.43;2.40;;;;;;;;;;5030935;28;20303;-57
2023/04/22 10:19:33;;;;;;;4.90;3.37;;;;;;;;;;5030932;28;20293;-57
2023/04/22 10:22:00;;;;;;;4.40;2.23;;;;;;;;;;5030583;28;20662;-57
2023/04/22 10:24:27;;;;;;;4.00;2.50;;;;;;;;;;5031161;28;20620;-57
2023/04/22 10:26:55;;;;;;;2.33;2.13;;;;;;;;;;5030966;28;20622;-58
2023/04/22 10:29:21;;;;;;;2.90;1.87;;;;;;;;;;5030853;28;20694;-57
2023/04/22 10:31:54;;;;;;;2.30;2.10;;;;;;;;;;5030852;28;20201;-58
2023/04/22 10:34:20;;;;;;;4.20;2.17;;;;;;;;;;5030734;28;20671;-57
2023/04/22 10:36:53;;;;;;;3.63;2.17;;;;;;;;;;5030627;28;20197;-57
2023/04/22 10:39:20;;;;;;;3.80;2.20;;;;;;;;;;5030694;28;20580;-56
2023/04/22 10:41:50;;;;;;;4.83;2.20;;;;;;;;;;5030613;28;20208;-57
2023/04/22 10:44:16;;;;;;;2.80;1.97;;;;;;;;;;5030808;28;20197;-57
2023/04/22 10:46:56;;;;;;;3.17;2.30;;;;;;;;;;5030897;28;20283;-56
2023/04/22 10:49:22;;;;;;;4.00;2.20;;;;;;;;;;5030680;28;20215;-57
2023/04/22 10:51:50;;;;;;;3.10;2.30;;;;;;;;;;5030511;28;20207;-57
2023/04/22 10:54:35;;;;;;;2.37;1.97;;;;;;;;;;5030648;28;20254;-57
2023/04/22 10:57:02;;;;;;;3.50;2.10;;;;;;;;;;5030412;28;20296;-58
2023/04/22 10:59:28;;;;;;;2.83;2.10;;;;;;;;;;5030561;28;20319;-58
2023/04/22 11:01:54;;;;;;;2.40;1.90;;;;;;;;;;5030446;28;20235;-58
2023/04/22 11:04:22;;;;;;;2.40;2.20;;;;;;;;;;5030726;28;20224;-58
2023/04/22 11:07:12;;;;;;;2.80;2.20;;;;;;;;;;5030261;28;20198;-58
2023/04/22 11:09:39;;;;;;;2.47;1.87;;;;;;;;;;5030423;28;20224;-58
2023/04/22 11:12:23;;;;;;;2.63;2.20;;;;;;;;;;5030569;28;20287;-56
2023/04/22 11:14:49;;;;;;;2.87;2.30;;;;;;;;;;5030227;28;20654;-56
2023/04/22 11:17:15;;;;;;;3.27;2.03;;;;;;;;;;5029995;28;20274;-56
2023/04/22 11:19:43;;;;;;;2.57;2.30;;;;;;;;;;5030179;28;20285;-58
2023/04/22 11:22:09;;;;;;;3.60;2.10;;;;;;;;;;5030798;28;20209;-56
2023/04/22 11:24:35;;;;;;;2.87;2.10;;;;;;;;;;5030697;28;20197;-57
2023/04/22 11:27:01;;;;;;;2.10;1.83;;;;;;;;;;5028777;28;20251;-57
2023/04/22 11:29:27;;;;;;;2.17;1.97;;;;;;;;;;5030348;28;20668;-57
2023/04/22 11:31:53;;;;;;;2.33;2.13;;;;;;;;;;5030557;28;20193;-57
2023/04/22 11:34:19;;;;;;;3.37;1.90;;;;;;;;;;5031845;28;20600;-57
2023/04/22 11:36:47;;;;;;;2.87;2.00;;;;;;;;;;5033809;28;20201;-57
2023/04/22 11:39:15;;;;;;;2.33;2.10;;;;;;;;;;5033960;28;20619;-57
2023/04/22 11:41:41;;;;;;;2.40;1.87;;;;;;;;;;5033976;28;20590;-56
2023/04/22 11:44:07;;;;;;;3.37;2.00;;;;;;;;;;5033772;28;20201;-57
2023/04/22 11:46:39;;;;;;;4.90;1.80;;;;;;;;;;5033677;28;20201;-57
2023/04/22 11:49:14;;;;;;;3.63;2.23;;;;;;;;;;5033664;28;20280;-57
2023/04/22 11:51:55;;;;;;;2.77;2.10;;;;;;;;;;5034031;28;20263;-57
2023/04/22 11:54:32;;;;;;;3.10;1.90;;;;;;;;;;5030430;28;20251;-57
2023/04/22 11:57:01;;;;;;;2.93;2.10;;;;;;;;;;5033596;28;20220;-57
2023/04/22 11:59:27;;;;;;;2.57;2.30;;;;;;;;;;5033602;28;20241;-57
2023/04/22 12:01:53;;;;;;;3.17;2.43;;;;;;;;;;5033603;28;20210;-57
2023/04/22 12:04:20;;;;;;;5.97;2.67;;;;;;;;;;5033349;28;20594;-57
2023/04/22 12:06:47;;;;;;;4.53;2.03;;;;;;;;;;5033206;28;20204;-57
2023/04/22 12:09:13;;;;;;;3.67;2.20;;;;;;;;;;5033336;28;20760;-59
2023/04/22 12:11:40;;;;;;;2.83;2.50;;;;;;;;;;5033522;28;20205;-58
2023/04/22 12:14:06;;;;;;;2.97;2.00;;;;;;;;;;5033159;28;20206;-58
2023/04/22 12:16:39;;;;;;;4.07;2.27;;;;;;;;;;5033068;28;20195;-57
2023/04/22 12:19:05;;;;;;;3.30;1.97;;;;;;;;;;5033281;28;20651;-57
2023/04/22 12:21:31;;;;;;;2.73;2.20;;;;;;;;;;5033087;28;20204;-57
2023/04/22 12:23:58;;;;;;;3.57;2.37;;;;;;;;;;5032968;28;20197;-58
2023/04/22 12:26:27;;;;;;;3.03;2.27;;;;;;;;;;5033353;28;20284;-59
2023/04/22 12:28:58;;;;;;;3.53;2.00;;;;;;;;;;5032938;28;20230;-58
2023/04/22 12:31:25;;;;;;;3.43;2.10;;;;;;;;;;5033361;28;20557;-57
2023/04/22 12:33:51;;;;;;;3.00;1.90;;;;;;;;;;5032736;28;20695;-58
2023/04/22 12:36:17;;;;;;;2.47;2.17;;;;;;;;;;5032967;28;20206;-58
2023/04/22 12:38:43;;;;;;;2.83;2.10;;;;;;;;;;5032801;28;20684;-57
2023/04/22 12:41:09;;;;;;;4.33;2.60;;;;;;;;;;5033022;28;20199;-57
2023/04/22 12:43:36;;;;;;;3.33;2.40;;;;;;;;;;5032595;28;20699;-57
2023/04/22 12:46:04;;;;;;;3.50;2.47;;;;;;;;;;5032855;28;20228;-57
2023/04/22 12:48:30;;;;;;;4.17;2.27;;;;;;;;;;5032532;28;20226;-57
2023/04/22 12:50:57;;;;;;;2.60;2.03;;;;;;;;;;5032900;28;20215;-58
2023/04/22 12:53:23;;;;;;;2.40;2.17;;;;;;;;;;5032992;28;20201;-57
2023/04/22 12:55:49;;;;;;;2.40;2.20;;;;;;;;;;5032553;28;20255;-57
2023/04/22 12:58:15;;;;;;;2.83;2.10;;;;;;;;;;5032614;28;20252;-58
2023/04/22 13:00:41;;;;;;;2.40;2.20;;;;;;;;;;5032813;28;20201;-57
2023/04/22 13:03:09;;;;;;;5.23;2.17;;;;;;;;;;5030766;28;20659;-58
2023/04/22 13:05:35;;;;;;;2.40;1.97;;;;;;;;;;5032423;28;20202;-57
2023/04/22 13:08:01;;;;;;;2.57;2.20;;;;;;;;;;5032129;28;20278;-58
2023/04/22 13:10:27;;;;;;;2.60;2.20;;;;;;;;;;5032407;28;20199;-58
2023/04/22 13:12:53;;;;;;;2.00;1.80;;;;;;;;;;5032260;28;20204;-58
2023/04/22 13:15:20;;;;;;;4.20;2.20;;;;;;;;;;5032131;28;20198;-58
2023/04/22 13:17:46;;;;;;;3.00;2.27;;;;;;;;;;5031798;28;20206;-58
2023/04/22 13:20:15;;;;;;;2.07;1.80;;;;;;;;;;5032215;28;20207;-58
2023/04/22 13:22:42;;;;;;;3.53;1.97;;;;;;;;;;5032238;28;20218;-58
2023/04/22 13:25:08;;;;;;;3.90;2.03;;;;;;;;;;5032057;28;20227;-58
2023/04/22 13:27:35;;;;;;;3.37;2.03;;;;;;;;;;5032090;28;20275;-57
2023/04/22 13:30:00;;;;;;;7.30;2.13;;;;;;;;;;5031916;28;20209;-57
2023/04/22 13:32:26;;;;;;;5.40;1.80;;;;;;;;;;5031919;28;20282;-58
2023/04/22 13:34:52;;;;;;;2.87;2.13;;;;;;;;;;5031565;28;20203;-57
2023/04/22 13:37:20;;;;;;;3.10;1.83;;;;;;;;;;5031700;28;20574;-58
2023/04/22 13:39:46;;;;;;;3.43;1.97;;;;;;;;;;5031539;28;20199;-58
2023/04/22 13:42:13;;;;;;;2.33;1.70;;;;;;;;;;5031956;28;20196;-58
2023/04/22 13:44:38;;;;;;;2.20;2.00;;;;;;;;;;5031733;28;20222;-58
2023/04/22 13:47:04;;;;;;;2.83;2.10;;;;;;;;;;5031428;28;20623;-57
2023/04/22 13:49:30;;;;;;;3.90;1.90;;;;;;;;;;5031609;28;20236;-57
2023/04/22 13:51:56;;;;;;;4.17;2.10;;;;;;;;;;5031552;28;20197;-57
2023/04/22 13:54:24;;;;;;;2.57;1.90;;;;;;;;;;5031517;28;20713;-58
2023/04/22 13:56:51;;;;;;;4.67;2.30;;;;;;;;;;5030853;28;20707;-58
2023/04/22 13:59:17;;;;;;;3.20;2.20;;;;;;;;;;5031354;28;20456;-57
2023/04/22 14:01:43;;;;;;;2.33;1.90;;;;;;;;;;5031338;28;20205;-57
2023/04/22 14:04:09;;;;;;;3.10;2.10;;;;;;;;;;5031576;28;20285;-57
2023/04/22 14:06:35;;;;;;;2.43;1.90;;;;;;;;;;5031379;28;20212;-57
2023/04/22 14:09:03;;;;;;;4.03;2.10;;;;;;;;;;5031109;28;20222;-57
2023/04/22 14:11:30;;;;;;;2.67;2.27;;;;;;;;;;5031206;28;20224;-58
2023/04/22 14:13:56;;;;;;;4.40;2.30;;;;;;;;;;5031198;28;20626;-58
2023/04/22 14:16:22;;;;;;;2.37;2.10;;;;;;;;;;5031216;28;20280;-58
2023/04/22 14:18:48;;;;;;;3.90;2.23;;;;;;;;;;5030985;28;20321;-56
2023/04/22 14:21:14;;;;;;;2.70;2.50;;;;;;;;;;5030975;28;20291;-58
2023/04/22 14:23:40;;;;;;;2.57;2.37;;;;;;;;;;5030685;28;20296;-58
2023/04/22 14:26:07;;;;;;;4.70;2.30;;;;;;;;;;5030841;28;20201;-58
2023/04/22 14:28:35;;;;;;;3.53;2.00;;;;;;;;;;5031029;28;20233;-58
2023/04/22 14:31:01;;;;;;;2.77;2.10;;;;;;;;;;5031035;28;20209;-58
2023/04/22 14:33:27;;;;;;;3.23;1.90;;;;;;;;;;5030923;28;20576;-58
2023/04/22 14:35:54;;;;;;;2.40;2.03;;;;;;;;;;5030887;28;20706;-58
2023/04/22 14:38:21;;;;;;;2.80;2.13;;;;;;;;;;5030974;28;20193;-58
2023/04/22 14:40:47;;;;;;;2.40;2.20;;;;;;;;;;5030626;28;20212;-58